sensor_id;sensor_type;location;lat;lon;timestamp;temperature;humidity
18335;DHT22;9293;49.524;10.964;2022-07-29T00:01:27;21.80;90.30
18335;DHT22;9293;49.524;10.964;2022-07-29T00:03:55;21.80;90.00
18335;DHT22;9293;49.524;10.964;2022-07-29T00:06:23;21.80;90.00
18335;DHT22;9293;49.524;10.964;2022-07-29T00:08:51;21.80;89.20
18335;DHT22;9293;49.524;10.964;2022-07-29T00:11:19;21.90;89.70
18335;DHT22;9293;49.524;10.964;2022-07-29T00:13:47;21.90;89.10
18335;DHT22;9293;49.524;10.964;2022-07-29T00:16:16;21.90;89.20
18335;DHT22;9293;49.524;10.964;2022-07-29T00:18:44;21.90;89.80
18335;DHT22;9293;49.524;10.964;2022-07-29T00:21:12;21.90;89.40
18335;DHT22;9293;49.524;10.964;2022-07-29T00:23:41;21.90;89.10
18335;DHT22;9293;49.524;10.964;2022-07-29T00:26:09;21.90;89.20
18335;DHT22;9293;49.524;10.964;2022-07-29T00:28:37;21.90;89.40
18335;DHT22;9293;49.524;10.964;2022-07-29T00:31:05;21.90;89.80
18335;DHT22;9293;49.524;10.964;2022-07-29T00:33:33;21.90;89.30
18335;DHT22;9293;49.524;10.964;2022-07-29T00:36:01;21.90;89.70
18335;DHT22;9293;49.524;10.964;2022-07-29T00:38:29;21.90;88.60
18335;DHT22;9293;49.524;10.964;2022-07-29T00:40:57;21.90;88.70
18335;DHT22;9293;49.524;10.964;2022-07-29T00:43:25;21.90;89.10
18335;DHT22;9293;49.524;10.964;2022-07-29T00:45:54;21.90;89.40
18335;DHT22;9293;49.524;10.964;2022-07-29T00:48:22;21.90;89.80
18335;DHT22;9293;49.524;10.964;2022-07-29T00:50:50;21.90;89.80
18335;DHT22;9293;49.524;10.964;2022-07-29T00:53:19;21.90;89.50
18335;DHT22;9293;49.524;10.964;2022-07-29T00:55:47;21.90;89.20
18335;DHT22;9293;49.524;10.964;2022-07-29T00:58:17;21.90;89.80
18335;DHT22;9293;49.524;10.964;2022-07-29T01:00:46;21.90;89.80
18335;DHT22;9293;49.524;10.964;2022-07-29T01:03:17;21.80;89.60
18335;DHT22;9293;49.524;10.964;2022-07-29T01:05:48;21.90;90.00
18335;DHT22;9293;49.524;10.964;2022-07-29T01:08:18;21.80;88.90
18335;DHT22;9293;49.524;10.964;2022-07-29T01:10:48;21.80;88.70
18335;DHT22;9293;49.524;10.964;2022-07-29T01:13:16;21.80;88.90
18335;DHT22;9293;49.524;10.964;2022-07-29T01:15:47;21.80;88.60
18335;DHT22;9293;49.524;10.964;2022-07-29T01:18:18;21.80;88.10
18335;DHT22;9293;49.524;10.964;2022-07-29T01:26:40;21.70;88.30
18335;DHT22;9293;49.524;10.964;2022-07-29T01:29:15;21.70;88.30
18335;DHT22;9293;49.524;10.964;2022-07-29T01:31:56;21.70;88.50
18335;DHT22;9293;49.524;10.964;2022-07-29T01:34:27;21.70;88.90
18335;DHT22;9293;49.524;10.964;2022-07-29T01:37:08;21.70;88.80
18335;DHT22;9293;49.524;10.964;2022-07-29T01:39:38;21.60;88.70
18335;DHT22;9293;49.524;10.964;2022-07-29T01:44:45;21.50;88.80
18335;DHT22;9293;49.524;10.964;2022-07-29T01:47:15;21.50;88.90
18335;DHT22;9293;49.524;10.964;2022-07-29T01:49:46;21.50;89.00
18335;DHT22;9293;49.524;10.964;2022-07-29T01:52:16;21.50;89.10
18335;DHT22;9293;49.524;10.964;2022-07-29T01:54:50;21.50;89.20
18335;DHT22;9293;49.524;10.964;2022-07-29T01:57:22;21.50;89.00
18335;DHT22;9293;49.524;10.964;2022-07-29T01:59:52;21.50;89.00
18335;DHT22;9293;49.524;10.964;2022-07-29T02:02:25;21.40;89.40
18335;DHT22;9293;49.524;10.964;2022-07-29T02:04:53;21.40;89.50
18335;DHT22;9293;49.524;10.964;2022-07-29T02:07:23;21.40;89.50
18335;DHT22;9293;49.524;10.964;2022-07-29T02:09:52;21.30;90.00
18335;DHT22;9293;49.524;10.964;2022-07-29T02:12:21;21.20;90.00
18335;DHT22;9293;49.524;10.964;2022-07-29T02:14:51;21.20;89.80
18335;DHT22;9293;49.524;10.964;2022-07-29T02:17:21;21.20;90.00
18335;DHT22;9293;49.524;10.964;2022-07-29T02:19:50;21.20;90.00
18335;DHT22;9293;49.524;10.964;2022-07-29T02:22:19;21.20;89.70
18335;DHT22;9293;49.524;10.964;2022-07-29T02:24:48;21.30;89.80
18335;DHT22;9293;49.524;10.964;2022-07-29T02:27:17;21.20;90.00
18335;DHT22;9293;49.524;10.964;2022-07-29T02:29:46;21.10;90.00
18335;DHT22;9293;49.524;10.964;2022-07-29T02:32:15;21.10;90.00
18335;DHT22;9293;49.524;10.964;2022-07-29T02:34:44;21.10;90.00
18335;DHT22;9293;49.524;10.964;2022-07-29T02:37:12;21.00;90.10
18335;DHT22;9293;49.524;10.964;2022-07-29T02:39:41;21.00;90.40
18335;DHT22;9293;49.524;10.964;2022-07-29T02:42:10;21.00;90.20
18335;DHT22;9293;49.524;10.964;2022-07-29T02:44:39;21.00;90.10
18335;DHT22;9293;49.524;10.964;2022-07-29T02:47:09;21.10;90.50
18335;DHT22;9293;49.524;10.964;2022-07-29T02:52:08;21.00;90.30
18335;DHT22;9293;49.524;10.964;2022-07-29T02:57:09;20.90;90.20
18335;DHT22;9293;49.524;10.964;2022-07-29T02:59:42;20.80;90.30
18335;DHT22;9293;49.524;10.964;2022-07-29T03:02:15;20.80;90.30
18335;DHT22;9293;49.524;10.964;2022-07-29T03:04:44;20.80;90.40
18335;DHT22;9293;49.524;10.964;2022-07-29T03:07:13;20.80;90.50
18335;DHT22;9293;49.524;10.964;2022-07-29T03:09:42;20.80;90.50
18335;DHT22;9293;49.524;10.964;2022-07-29T03:12:12;20.70;90.50
18335;DHT22;9293;49.524;10.964;2022-07-29T03:14:40;20.70;90.60
18335;DHT22;9293;49.524;10.964;2022-07-29T03:17:08;20.60;90.80
18335;DHT22;9293;49.524;10.964;2022-07-29T03:19:37;20.60;90.70
18335;DHT22;9293;49.524;10.964;2022-07-29T03:22:05;20.50;90.40
18335;DHT22;9293;49.524;10.964;2022-07-29T03:24:35;20.50;90.50
18335;DHT22;9293;49.524;10.964;2022-07-29T03:27:03;20.50;90.70
18335;DHT22;9293;49.524;10.964;2022-07-29T03:29:31;20.50;90.80
18335;DHT22;9293;49.524;10.964;2022-07-29T03:32:01;20.50;91.10
18335;DHT22;9293;49.524;10.964;2022-07-29T03:34:35;20.50;90.90
18335;DHT22;9293;49.524;10.964;2022-07-29T03:37:03;20.40;91.10
18335;DHT22;9293;49.524;10.964;2022-07-29T03:39:33;20.50;91.10
18335;DHT22;9293;49.524;10.964;2022-07-29T03:42:02;20.50;91.30
18335;DHT22;9293;49.524;10.964;2022-07-29T03:44:32;20.40;90.90
18335;DHT22;9293;49.524;10.964;2022-07-29T03:47:00;20.40;91.00
18335;DHT22;9293;49.524;10.964;2022-07-29T03:49:29;20.40;91.30
18335;DHT22;9293;49.524;10.964;2022-07-29T03:51:58;20.30;91.40
18335;DHT22;9293;49.524;10.964;2022-07-29T03:54:26;20.20;91.50
18335;DHT22;9293;49.524;10.964;2022-07-29T03:56:54;20.20;91.80
18335;DHT22;9293;49.524;10.964;2022-07-29T03:59:24;20.10;92.20
18335;DHT22;9293;49.524;10.964;2022-07-29T04:01:53;20.00;92.30
18335;DHT22;9293;49.524;10.964;2022-07-29T04:04:23;20.00;92.30
18335;DHT22;9293;49.524;10.964;2022-07-29T04:06:52;19.90;92.40
18335;DHT22;9293;49.524;10.964;2022-07-29T04:09:20;19.90;92.60
18335;DHT22;9293;49.524;10.964;2022-07-29T04:11:49;19.80;92.80
18335;DHT22;9293;49.524;10.964;2022-07-29T04:14:29;19.80;92.80
18335;DHT22;9293;49.524;10.964;2022-07-29T04:16:59;19.80;93.10
18335;DHT22;9293;49.524;10.964;2022-07-29T04:19:27;19.70;93.40
18335;DHT22;9293;49.524;10.964;2022-07-29T04:21:55;19.50;93.50
18335;DHT22;9293;49.524;10.964;2022-07-29T04:24:23;19.30;94.30
18335;DHT22;9293;49.524;10.964;2022-07-29T04:26:51;19.20;94.40
18335;DHT22;9293;49.524;10.964;2022-07-29T04:29:19;19.40;94.10
18335;DHT22;9293;49.524;10.964;2022-07-29T04:31:47;19.40;94.00
18335;DHT22;9293;49.524;10.964;2022-07-29T04:34:15;19.40;94.40
18335;DHT22;9293;49.524;10.964;2022-07-29T04:36:43;19.20;95.50
18335;DHT22;9293;49.524;10.964;2022-07-29T04:39:11;19.10;96.00
18335;DHT22;9293;49.524;10.964;2022-07-29T04:41:46;19.10;96.40
18335;DHT22;9293;49.524;10.964;2022-07-29T04:44:14;19.10;96.80
18335;DHT22;9293;49.524;10.964;2022-07-29T04:46:44;19.10;96.90
18335;DHT22;9293;49.524;10.964;2022-07-29T04:49:12;19.20;96.90
18335;DHT22;9293;49.524;10.964;2022-07-29T04:51:40;19.30;96.70
18335;DHT22;9293;49.524;10.964;2022-07-29T04:54:08;19.40;96.90
18335;DHT22;9293;49.524;10.964;2022-07-29T04:56:36;19.40;96.90
18335;DHT22;9293;49.524;10.964;2022-07-29T04:59:04;19.50;96.80
18335;DHT22;9293;49.524;10.964;2022-07-29T05:01:32;19.50;96.70
18335;DHT22;9293;49.524;10.964;2022-07-29T05:04:00;19.50;96.80
18335;DHT22;9293;49.524;10.964;2022-07-29T05:06:29;19.40;97.40
18335;DHT22;9293;49.524;10.964;2022-07-29T05:08:57;19.40;97.50
18335;DHT22;9293;49.524;10.964;2022-07-29T05:11:26;19.50;97.50
18335;DHT22;9293;49.524;10.964;2022-07-29T05:13:56;19.60;97.60
18335;DHT22;9293;49.524;10.964;2022-07-29T05:16:24;19.70;97.80
18335;DHT22;9293;49.524;10.964;2022-07-29T05:18:52;19.70;97.60
18335;DHT22;9293;49.524;10.964;2022-07-29T05:21:20;19.80;97.90
18335;DHT22;9293;49.524;10.964;2022-07-29T05:23:48;19.80;97.70
18335;DHT22;9293;49.524;10.964;2022-07-29T05:26:16;19.90;97.80
18335;DHT22;9293;49.524;10.964;2022-07-29T05:28:44;19.90;97.90
18335;DHT22;9293;49.524;10.964;2022-07-29T05:31:12;19.90;97.90
18335;DHT22;9293;49.524;10.964;2022-07-29T05:33:42;19.90;98.00
18335;DHT22;9293;49.524;10.964;2022-07-29T05:36:10;19.90;98.30
18335;DHT22;9293;49.524;10.964;2022-07-29T05:38:38;19.90;98.60
18335;DHT22;9293;49.524;10.964;2022-07-29T05:41:06;19.90;98.50
18335;DHT22;9293;49.524;10.964;2022-07-29T05:43:34;20.00;97.90
18335;DHT22;9293;49.524;10.964;2022-07-29T05:46:02;20.10;97.10
18335;DHT22;9293;49.524;10.964;2022-07-29T05:48:30;20.10;96.60
18335;DHT22;9293;49.524;10.964;2022-07-29T05:50:58;20.20;96.70
18335;DHT22;9293;49.524;10.964;2022-07-29T05:53:26;20.30;97.10
18335;DHT22;9293;49.524;10.964;2022-07-29T05:55:53;20.50;97.70
18335;DHT22;9293;49.524;10.964;2022-07-29T05:58:22;20.70;97.50
18335;DHT22;9293;49.524;10.964;2022-07-29T06:00:50;20.80;96.90
18335;DHT22;9293;49.524;10.964;2022-07-29T06:03:18;21.00;96.60
18335;DHT22;9293;49.524;10.964;2022-07-29T06:05:45;21.20;95.80
18335;DHT22;9293;49.524;10.964;2022-07-29T06:08:13;21.40;94.80
18335;DHT22;9293;49.524;10.964;2022-07-29T06:10:41;21.50;94.50
18335;DHT22;9293;49.524;10.964;2022-07-29T06:13:09;21.70;94.10
18335;DHT22;9293;49.524;10.964;2022-07-29T06:15:37;22.00;94.20
18335;DHT22;9293;49.524;10.964;2022-07-29T06:18:07;22.10;93.40
18335;DHT22;9293;49.524;10.964;2022-07-29T06:20:44;22.30;92.60
18335;DHT22;9293;49.524;10.964;2022-07-29T06:23:12;22.40;92.20
18335;DHT22;9293;49.524;10.964;2022-07-29T06:25:40;22.60;91.90
18335;DHT22;9293;49.524;10.964;2022-07-29T06:28:08;23.00;92.10
18335;DHT22;9293;49.524;10.964;2022-07-29T06:30:36;23.40;91.70
18335;DHT22;9293;49.524;10.964;2022-07-29T06:33:05;23.60;91.40
18335;DHT22;9293;49.524;10.964;2022-07-29T06:35:34;23.80;90.70
18335;DHT22;9293;49.524;10.964;2022-07-29T06:38:18;23.90;90.70
18335;DHT22;9293;49.524;10.964;2022-07-29T06:40:57;24.10;90.60
18335;DHT22;9293;49.524;10.964;2022-07-29T06:43:33;24.30;89.70
18335;DHT22;9293;49.524;10.964;2022-07-29T06:46:17;24.50;90.00
18335;DHT22;9293;49.524;10.964;2022-07-29T06:48:48;24.70;89.80
18335;DHT22;9293;49.524;10.964;2022-07-29T06:51:19;24.90;89.90
18335;DHT22;9293;49.524;10.964;2022-07-29T06:53:52;25.10;89.70
18335;DHT22;9293;49.524;10.964;2022-07-29T06:56:29;25.30;89.30
18335;DHT22;9293;49.524;10.964;2022-07-29T06:58:57;25.40;89.30
18335;DHT22;9293;49.524;10.964;2022-07-29T07:01:27;25.50;89.30
18335;DHT22;9293;49.524;10.964;2022-07-29T07:03:55;25.60;90.10
18335;DHT22;9293;49.524;10.964;2022-07-29T07:06:23;25.70;88.50
18335;DHT22;9293;49.524;10.964;2022-07-29T07:08:51;26.00;88.70
18335;DHT22;9293;49.524;10.964;2022-07-29T07:11:19;26.20;87.70
18335;DHT22;9293;49.524;10.964;2022-07-29T07:13:47;26.30;87.90
18335;DHT22;9293;49.524;10.964;2022-07-29T07:16:15;26.30;87.30
18335;DHT22;9293;49.524;10.964;2022-07-29T07:18:43;26.40;88.50
18335;DHT22;9293;49.524;10.964;2022-07-29T07:21:12;26.50;87.90
18335;DHT22;9293;49.524;10.964;2022-07-29T07:23:45;26.60;87.20
18335;DHT22;9293;49.524;10.964;2022-07-29T07:26:14;26.70;87.30
18335;DHT22;9293;49.524;10.964;2022-07-29T07:28:42;26.70;87.20
18335;DHT22;9293;49.524;10.964;2022-07-29T07:31:10;26.90;87.20
18335;DHT22;9293;49.524;10.964;2022-07-29T07:33:39;27.20;87.20
18335;DHT22;9293;49.524;10.964;2022-07-29T07:36:07;27.40;88.40
18335;DHT22;9293;49.524;10.964;2022-07-29T07:38:38;27.60;86.50
18335;DHT22;9293;49.524;10.964;2022-07-29T07:41:05;27.60;86.90
18335;DHT22;9293;49.524;10.964;2022-07-29T07:43:33;27.50;86.30
18335;DHT22;9293;49.524;10.964;2022-07-29T07:46:01;27.30;86.30
18335;DHT22;9293;49.524;10.964;2022-07-29T07:48:30;27.20;88.60
18335;DHT22;9293;49.524;10.964;2022-07-29T07:50:58;27.20;89.00
18335;DHT22;9293;49.524;10.964;2022-07-29T07:53:28;27.20;87.60
18335;DHT22;9293;49.524;10.964;2022-07-29T07:55:58;27.20;88.20
18335;DHT22;9293;49.524;10.964;2022-07-29T07:58:42;27.20;87.10
18335;DHT22;9293;49.524;10.964;2022-07-29T08:01:19;27.20;87.60
18335;DHT22;9293;49.524;10.964;2022-07-29T08:04:22;27.20;88.40
18335;DHT22;9293;49.524;10.964;2022-07-29T08:06:57;27.10;88.20
18335;DHT22;9293;49.524;10.964;2022-07-29T08:09:26;27.00;89.00
18335;DHT22;9293;49.524;10.964;2022-07-29T08:11:57;27.10;87.80
18335;DHT22;9293;49.524;10.964;2022-07-29T08:14:36;27.20;87.20
18335;DHT22;9293;49.524;10.964;2022-07-29T08:17:04;27.30;88.60
18335;DHT22;9293;49.524;10.964;2022-07-29T08:19:32;27.50;87.90
18335;DHT22;9293;49.524;10.964;2022-07-29T08:22:00;27.70;87.10
18335;DHT22;9293;49.524;10.964;2022-07-29T08:24:28;27.80;87.40
18335;DHT22;9293;49.524;10.964;2022-07-29T08:27:14;28.00;88.00
18335;DHT22;9293;49.524;10.964;2022-07-29T08:30:03;28.00;88.10
18335;DHT22;9293;49.524;10.964;2022-07-29T08:32:31;28.10;86.60
18335;DHT22;9293;49.524;10.964;2022-07-29T08:35:20;28.30;87.30
18335;DHT22;9293;49.524;10.964;2022-07-29T08:38:00;28.80;86.50
18335;DHT22;9293;49.524;10.964;2022-07-29T08:40:30;29.10;84.20
18335;DHT22;9293;49.524;10.964;2022-07-29T08:43:03;29.20;84.60
18335;DHT22;9293;49.524;10.964;2022-07-29T08:45:51;29.40;84.60
18335;DHT22;9293;49.524;10.964;2022-07-29T08:48:22;29.60;82.70
18335;DHT22;9293;49.524;10.964;2022-07-29T08:50:52;29.80;82.10
18335;DHT22;9293;49.524;10.964;2022-07-29T08:53:25;29.90;82.30
18335;DHT22;9293;49.524;10.964;2022-07-29T08:55:54;29.60;83.10
18335;DHT22;9293;49.524;10.964;2022-07-29T08:58:23;29.60;81.40
18335;DHT22;9293;49.524;10.964;2022-07-29T09:00:53;29.90;82.30
18335;DHT22;9293;49.524;10.964;2022-07-29T09:03:25;30.10;82.10
18335;DHT22;9293;49.524;10.964;2022-07-29T09:05:53;30.20;80.40
18335;DHT22;9293;49.524;10.964;2022-07-29T09:08:21;30.40;81.60
18335;DHT22;9293;49.524;10.964;2022-07-29T09:10:53;30.40;80.20
18335;DHT22;9293;49.524;10.964;2022-07-29T09:13:31;30.00;80.50
18335;DHT22;9293;49.524;10.964;2022-07-29T09:15:59;29.90;82.40
18335;DHT22;9293;49.524;10.964;2022-07-29T09:18:38;30.10;81.20
18335;DHT22;9293;49.524;10.964;2022-07-29T09:21:07;30.20;81.50
18335;DHT22;9293;49.524;10.964;2022-07-29T09:26:31;30.00;82.10
18335;DHT22;9293;49.524;10.964;2022-07-29T09:28:59;29.70;81.50
18335;DHT22;9293;49.524;10.964;2022-07-29T09:31:36;29.50;82.00
18335;DHT22;9293;49.524;10.964;2022-07-29T09:34:04;29.80;81.40
18335;DHT22;9293;49.524;10.964;2022-07-29T09:36:45;30.10;80.10
18335;DHT22;9293;49.524;10.964;2022-07-29T09:39:14;30.40;79.90
18335;DHT22;9293;49.524;10.964;2022-07-29T09:44:14;30.10;79.30
18335;DHT22;9293;49.524;10.964;2022-07-29T09:46:56;30.00;78.50
18335;DHT22;9293;49.524;10.964;2022-07-29T09:49:24;29.90;78.60
18335;DHT22;9293;49.524;10.964;2022-07-29T09:51:59;29.60;79.40
18335;DHT22;9293;49.524;10.964;2022-07-29T09:54:27;29.60;79.70
18335;DHT22;9293;49.524;10.964;2022-07-29T09:56:55;29.80;77.40
18335;DHT22;9293;49.524;10.964;2022-07-29T09:59:24;29.90;77.10
18335;DHT22;9293;49.524;10.964;2022-07-29T10:01:54;29.80;77.30
18335;DHT22;9293;49.524;10.964;2022-07-29T10:04:22;29.70;77.60
18335;DHT22;9293;49.524;10.964;2022-07-29T10:06:57;29.60;78.60
18335;DHT22;9293;49.524;10.964;2022-07-29T10:09:30;29.50;78.50
18335;DHT22;9293;49.524;10.964;2022-07-29T10:12:02;29.30;78.30
18335;DHT22;9293;49.524;10.964;2022-07-29T10:14:33;29.20;80.50
18335;DHT22;9293;49.524;10.964;2022-07-29T10:17:04;29.40;78.50
18335;DHT22;9293;49.524;10.964;2022-07-29T10:19:34;29.40;79.20
18335;DHT22;9293;49.524;10.964;2022-07-29T10:22:04;29.50;79.10
18335;DHT22;9293;49.524;10.964;2022-07-29T10:24:32;29.60;77.60
18335;DHT22;9293;49.524;10.964;2022-07-29T10:27:01;29.60;80.10
18335;DHT22;9293;49.524;10.964;2022-07-29T10:29:30;29.80;77.70
18335;DHT22;9293;49.524;10.964;2022-07-29T10:40:22;30.30;77.20
18335;DHT22;9293;49.524;10.964;2022-07-29T10:43:21;30.50;76.60
18335;DHT22;9293;49.524;10.964;2022-07-29T10:45:54;30.40;77.80
18335;DHT22;9293;49.524;10.964;2022-07-29T10:48:24;30.40;77.40
18335;DHT22;9293;49.524;10.964;2022-07-29T10:53:23;31.10;77.40
18335;DHT22;9293;49.524;10.964;2022-07-29T10:55:59;31.30;76.50
18335;DHT22;9293;49.524;10.964;2022-07-29T10:58:32;31.80;80.30
18335;DHT22;9293;49.524;10.964;2022-07-29T11:01:28;32.20;77.10
18335;DHT22;9293;49.524;10.964;2022-07-29T11:08:31;32.20;76.10
18335;DHT22;9293;49.524;10.964;2022-07-29T11:14:00;31.60;75.90
18335;DHT22;9293;49.524;10.964;2022-07-29T11:21:52;31.50;76.70
18335;DHT22;9293;49.524;10.964;2022-07-29T11:24:44;31.30;77.60
18335;DHT22;9293;49.524;10.964;2022-07-29T11:27:17;31.30;77.00
18335;DHT22;9293;49.524;10.964;2022-07-29T11:29:51;31.20;77.60
18335;DHT22;9293;49.524;10.964;2022-07-29T11:32:21;31.40;74.80
18335;DHT22;9293;49.524;10.964;2022-07-29T11:35:10;31.40;76.20
18335;DHT22;9293;49.524;10.964;2022-07-29T11:37:44;31.60;75.80
18335;DHT22;9293;49.524;10.964;2022-07-29T11:40:21;31.90;75.10
18335;DHT22;9293;49.524;10.964;2022-07-29T11:42:50;32.30;75.10
18335;DHT22;9293;49.524;10.964;2022-07-29T11:45:25;32.70;74.60
18335;DHT22;9293;49.524;10.964;2022-07-29T11:48:16;32.90;75.90
18335;DHT22;9293;49.524;10.964;2022-07-29T11:50:55;33.10;73.80
18335;DHT22;9293;49.524;10.964;2022-07-29T11:53:24;33.20;72.10
18335;DHT22;9293;49.524;10.964;2022-07-29T11:55:58;33.20;72.40
18335;DHT22;9293;49.524;10.964;2022-07-29T11:58:28;32.50;72.10
18335;DHT22;9293;49.524;10.964;2022-07-29T12:00:56;31.90;73.20
18335;DHT22;9293;49.524;10.964;2022-07-29T12:03:31;31.90;74.80
18335;DHT22;9293;49.524;10.964;2022-07-29T12:06:04;32.40;73.60
18335;DHT22;9293;49.524;10.964;2022-07-29T12:08:42;32.60;72.30
18335;DHT22;9293;49.524;10.964;2022-07-29T12:11:20;32.60;70.80
18335;DHT22;9293;49.524;10.964;2022-07-29T12:13:52;32.70;69.70
18335;DHT22;9293;49.524;10.964;2022-07-29T12:16:20;32.30;69.60
18335;DHT22;9293;49.524;10.964;2022-07-29T12:18:58;32.60;71.20
18335;DHT22;9293;49.524;10.964;2022-07-29T12:21:28;33.10;71.20
18335;DHT22;9293;49.524;10.964;2022-07-29T12:23:56;33.40;71.20
18335;DHT22;9293;49.524;10.964;2022-07-29T12:26:35;33.60;69.50
18335;DHT22;9293;49.524;10.964;2022-07-29T12:29:03;33.60;68.20
18335;DHT22;9293;49.524;10.964;2022-07-29T12:31:44;33.70;70.60
18335;DHT22;9293;49.524;10.964;2022-07-29T12:34:16;34.00;70.10
18335;DHT22;9293;49.524;10.964;2022-07-29T12:36:45;33.80;67.20
18335;DHT22;9293;49.524;10.964;2022-07-29T12:39:14;33.60;68.20
18335;DHT22;9293;49.524;10.964;2022-07-29T12:41:43;33.60;67.30
18335;DHT22;9293;49.524;10.964;2022-07-29T12:44:12;33.40;68.20
18335;DHT22;9293;49.524;10.964;2022-07-29T12:46:40;33.20;67.90
18335;DHT22;9293;49.524;10.964;2022-07-29T12:49:08;33.20;69.50
18335;DHT22;9293;49.524;10.964;2022-07-29T12:51:38;33.20;68.20
18335;DHT22;9293;49.524;10.964;2022-07-29T12:54:08;33.30;68.90
18335;DHT22;9293;49.524;10.964;2022-07-29T12:56:38;33.50;67.60
18335;DHT22;9293;49.524;10.964;2022-07-29T12:59:19;33.60;67.10
18335;DHT22;9293;49.524;10.964;2022-07-29T13:01:49;33.60;67.60
18335;DHT22;9293;49.524;10.964;2022-07-29T13:04:23;33.70;66.70
18335;DHT22;9293;49.524;10.964;2022-07-29T13:06:58;33.70;66.10
18335;DHT22;9293;49.524;10.964;2022-07-29T13:09:35;33.70;67.30
18335;DHT22;9293;49.524;10.964;2022-07-29T13:12:11;33.60;66.60
18335;DHT22;9293;49.524;10.964;2022-07-29T13:14:40;33.60;66.40
18335;DHT22;9293;49.524;10.964;2022-07-29T13:19:44;34.00;65.50
18335;DHT22;9293;49.524;10.964;2022-07-29T13:22:22;34.10;65.30
18335;DHT22;9293;49.524;10.964;2022-07-29T13:24:52;34.20;66.90
18335;DHT22;9293;49.524;10.964;2022-07-29T13:27:22;34.00;66.30
18335;DHT22;9293;49.524;10.964;2022-07-29T13:29:50;33.60;67.30
18335;DHT22;9293;49.524;10.964;2022-07-29T13:32:24;33.30;67.70
18335;DHT22;9293;49.524;10.964;2022-07-29T13:34:55;33.10;67.80
18335;DHT22;9293;49.524;10.964;2022-07-29T13:37:23;32.80;69.10
18335;DHT22;9293;49.524;10.964;2022-07-29T13:39:51;32.40;69.50
18335;DHT22;9293;49.524;10.964;2022-07-29T13:42:20;32.00;68.60
18335;DHT22;9293;49.524;10.964;2022-07-29T13:44:48;31.60;68.70
18335;DHT22;9293;49.524;10.964;2022-07-29T13:47:19;31.20;69.20
18335;DHT22;9293;49.524;10.964;2022-07-29T13:49:47;31.00;69.90
18335;DHT22;9293;49.524;10.964;2022-07-29T13:52:15;30.90;71.50
18335;DHT22;9293;49.524;10.964;2022-07-29T13:54:44;30.90;71.40
18335;DHT22;9293;49.524;10.964;2022-07-29T13:57:12;30.80;72.30
18335;DHT22;9293;49.524;10.964;2022-07-29T13:59:41;30.80;71.70
18335;DHT22;9293;49.524;10.964;2022-07-29T14:02:10;30.60;72.30
18335;DHT22;9293;49.524;10.964;2022-07-29T14:04:41;30.00;73.40
18335;DHT22;9293;49.524;10.964;2022-07-29T14:07:09;29.50;75.60
18335;DHT22;9293;49.524;10.964;2022-07-29T14:09:42;29.10;76.90
18335;DHT22;9293;49.524;10.964;2022-07-29T14:12:10;29.00;77.50
18335;DHT22;9293;49.524;10.964;2022-07-29T14:14:39;28.80;78.00
18335;DHT22;9293;49.524;10.964;2022-07-29T14:17:07;28.20;78.60
18335;DHT22;9293;49.524;10.964;2022-07-29T14:19:39;28.10;80.60
18335;DHT22;9293;49.524;10.964;2022-07-29T14:22:07;27.90;86.70
18335;DHT22;9293;49.524;10.964;2022-07-29T14:24:36;27.60;90.20
18335;DHT22;9293;49.524;10.964;2022-07-29T14:27:04;27.40;88.90
18335;DHT22;9293;49.524;10.964;2022-07-29T14:29:33;27.10;90.20
18335;DHT22;9293;49.524;10.964;2022-07-29T14:32:04;27.00;91.40
18335;DHT22;9293;49.524;10.964;2022-07-29T14:34:33;26.90;90.70
18335;DHT22;9293;49.524;10.964;2022-07-29T14:37:01;26.80;91.60
18335;DHT22;9293;49.524;10.964;2022-07-29T14:39:30;26.60;92.10
18335;DHT22;9293;49.524;10.964;2022-07-29T14:41:58;26.50;92.90
18335;DHT22;9293;49.524;10.964;2022-07-29T14:44:27;26.20;93.40
18335;DHT22;9293;49.524;10.964;2022-07-29T14:46:59;26.10;93.80
18335;DHT22;9293;49.524;10.964;2022-07-29T14:49:34;25.90;93.40
18335;DHT22;9293;49.524;10.964;2022-07-29T14:52:02;25.80;93.80
18335;DHT22;9293;49.524;10.964;2022-07-29T14:54:32;25.40;94.40
18335;DHT22;9293;49.524;10.964;2022-07-29T14:57:00;25.20;95.50
18335;DHT22;9293;49.524;10.964;2022-07-29T14:59:28;25.00;96.10
18335;DHT22;9293;49.524;10.964;2022-07-29T15:01:56;24.70;96.70
18335;DHT22;9293;49.524;10.964;2022-07-29T15:04:24;24.40;98.10
18335;DHT22;9293;49.524;10.964;2022-07-29T15:06:52;24.10;99.40
18335;DHT22;9293;49.524;10.964;2022-07-29T15:09:21;24.10;99.30
18335;DHT22;9293;49.524;10.964;2022-07-29T15:11:49;24.10;99.80
18335;DHT22;9293;49.524;10.964;2022-07-29T15:14:17;24.10;99.90
18335;DHT22;9293;49.524;10.964;2022-07-29T15:16:45;23.90;99.90
18335;DHT22;9293;49.524;10.964;2022-07-29T15:19:13;23.80;99.90
18335;DHT22;9293;49.524;10.964;2022-07-29T15:21:41;23.90;99.90
18335;DHT22;9293;49.524;10.964;2022-07-29T15:24:15;24.10;99.90
18335;DHT22;9293;49.524;10.964;2022-07-29T15:26:43;24.00;99.90
18335;DHT22;9293;49.524;10.964;2022-07-29T15:29:11;23.90;99.90
18335;DHT22;9293;49.524;10.964;2022-07-29T15:31:39;23.90;99.90
18335;DHT22;9293;49.524;10.964;2022-07-29T15:34:08;23.80;99.90
18335;DHT22;9293;49.524;10.964;2022-07-29T15:36:35;23.70;99.90
18335;DHT22;9293;49.524;10.964;2022-07-29T15:39:20;23.40;99.90
18335;DHT22;9293;49.524;10.964;2022-07-29T15:41:48;23.00;99.90
18335;DHT22;9293;49.524;10.964;2022-07-29T15:44:17;22.90;99.90
18335;DHT22;9293;49.524;10.964;2022-07-29T15:46:46;22.80;99.90
18335;DHT22;9293;49.524;10.964;2022-07-29T15:49:34;22.70;99.90
18335;DHT22;9293;49.524;10.964;2022-07-29T15:52:18;22.70;99.90
18335;DHT22;9293;49.524;10.964;2022-07-29T15:54:52;22.70;99.90
18335;DHT22;9293;49.524;10.964;2022-07-29T15:57:20;22.50;99.90
18335;DHT22;9293;49.524;10.964;2022-07-29T15:59:49;22.30;99.90
18335;DHT22;9293;49.524;10.964;2022-07-29T16:02:17;22.30;99.90
18335;DHT22;9293;49.524;10.964;2022-07-29T16:04:44;22.40;99.90
18335;DHT22;9293;49.524;10.964;2022-07-29T16:07:12;22.50;99.90
18335;DHT22;9293;49.524;10.964;2022-07-29T16:09:41;22.50;99.90
18335;DHT22;9293;49.524;10.964;2022-07-29T16:12:09;22.40;99.90
18335;DHT22;9293;49.524;10.964;2022-07-29T16:14:44;22.30;99.90
18335;DHT22;9293;49.524;10.964;2022-07-29T16:17:15;22.30;99.90
18335;DHT22;9293;49.524;10.964;2022-07-29T16:19:43;22.30;99.90
18335;DHT22;9293;49.524;10.964;2022-07-29T16:22:12;22.20;99.90
18335;DHT22;9293;49.524;10.964;2022-07-29T16:24:40;22.00;99.90
18335;DHT22;9293;49.524;10.964;2022-07-29T16:27:08;21.80;99.90
18335;DHT22;9293;49.524;10.964;2022-07-29T16:29:36;21.40;99.90
18335;DHT22;9293;49.524;10.964;2022-07-29T16:32:04;21.30;99.90
18335;DHT22;9293;49.524;10.964;2022-07-29T16:34:32;21.40;99.90
18335;DHT22;9293;49.524;10.964;2022-07-29T16:37:00;21.40;99.90